Ulsteinvik  Ulsteinvik


Beaufortskalaen  Beaufortskalaen


Clouds and precipitation  Clouds and precipitation


Nedbørsradar more information rain snow radar


Ingen spesiell oppmerksomhet om været er nødvendig.    Det er ingen advarsler

Nære METAR rapporter

   
ENAL - Ålesund
oppdatert: 02-08-2021 05:50
Overskyet  
Overskyet  
   Vind: ØNØ 4.6 m/s
Vind: ØNØ 4.6 m/s
Temperatur: 10°C
Wind Chill: 8°C
Duggpunkt: 7°C
Fuktighet: 82%
Barometer: 1008 hPa
Skyer: Overskyet
Sikt: More than 10 km
Skydetaljer: Overskyet 1249.7 m
ENAL 020350Z AUTO 06009KT 9999 OVC041/// 10/07 Q1008
ENOV - Ørsta
oppdatert: 02-08-2021 05:50
For det meste skyet  
For det meste skyet  
   Vind: varierer 1 m/s
Vind: varierer 1 m/s
Temperatur: 8°C
Duggpunkt: 6°C
Fuktighet: 87%
Barometer: 1008 hPa
Skyer: For det meste skyet
Sikt: More than 10 km
Skydetaljer: få skyer 1066.8 m,
For det meste skyet 1493.5 m
ENOV 020350Z VRB02KT 9999 FEW035 BKN049 08/06 Q1008 RMK WIND 2175FT 01009KT
ENML - Tafjorden
oppdatert: 02-08-2021 05:50
Lett regn, Overskyet  
Lett regn, Overskyet  
   Vind: ØNØ 3.1 m/s
Vind: ØNØ 3.1 m/s
Temperatur: 10°C
Wind Chill: 8°C
Duggpunkt: 6°C
Fuktighet: 76%
Barometer: 1008 hPa
Skyer: Overskyet
Sikt: 10 km
Skydetaljer: Overskyet 1066.8 m
ENML 020350Z AUTO 06006KT 020V090 9999NDV -RA OVC035/// 10/06 Q1008
ENML - Molde
oppdatert: 02-08-2021 05:50
Lett regn, Overskyet  
Lett regn, Overskyet  
   Vind: ØNØ 3.1 m/s
Vind: ØNØ 3.1 m/s
Temperatur: 10°C
Wind Chill: 8°C
Duggpunkt: 6°C
Fuktighet: 76%
Barometer: 1008 hPa
Skyer: Overskyet
Sikt: 10 km
Skydetaljer: Overskyet 1066.8 m
ENML 020350Z AUTO 06006KT 020V090 9999NDV -RA OVC035/// 10/06 Q1008
ENFL - Florø
oppdatert: 02-08-2021 05:50
Klart  
Klart  
   Vind: Nord 5.1 m/s
Vind: Nord 5.1 m/s
Temperatur: 12°C
Duggpunkt: 5°C
Fuktighet: 63%
Barometer: 1007 hPa
Skyer: Klart
Sikt: 10 km
Skydetaljer: Klart
ENFL 020350Z AUTO 36010KT 9999NDV NCD 12/05 Q1007
ENVA - Trondheim
oppdatert: 02-08-2021 05:50
For det meste skyet  
For det meste skyet  
   Vind: NNØ 2.1 m/s
Vind: NNØ 2.1 m/s
Temperatur: 9°C
Wind Chill: 8°C
Duggpunkt: 8°C
Fuktighet: 94%
Barometer: 1007 hPa
Skyer: For det meste skyet
Sikt: More than 10 km
Skydetaljer: Delvis Skyet 731.5 m,
For det meste skyet 1615.4 m
ENVA 020350Z 02004KT 9999 SCT024 BKN053 09/08 Q1007 RMK WIND 670FT 33010KT
ENBR - Bergen
oppdatert: 02-08-2021 05:50
Klart  
Klart  
   Vind: Nord 3.6 m/s
Vind: Nord 3.6 m/s
Temperatur: 11°C
Duggpunkt: 8°C
Fuktighet: 82%
Barometer: 1006 hPa
Sikt: More than 10 km
Skydetaljer: Klart
ENBR 020350Z 35007KT CAVOK 11/08 Q1006 RMK WIND 1200FT 34022KT
ENZV - Stavanger
oppdatert: 02-08-2021 05:50
Klart  
Klart  
   Vind: NNV 7.2 m/s
Vind: NNV 7.2 m/s
Temperatur: 12°C
Duggpunkt: 8°C
Fuktighet: 77%
Barometer: 1006 hPa
Sikt: More than 10 km
Skydetaljer: Klart
ENZV 020350Z 34014KT CAVOK 12/08 Q1006
ENGM - Oslo
oppdatert: 02-08-2021 05:50
Klart  
Klart  
   Vind: Nord 6.2 m/s
Vind: Nord 6.2 m/s
Temperatur: 10°C
Wind Chill: 7°C
Duggpunkt: 4°C
Fuktighet: 67%
Barometer: 1004 hPa
Sikt: More than 10 km
Skydetaljer: Klart
ENGM 020350Z 36012KT CAVOK 10/04 Q1004 NOSIG
ESSA - Stockholm
oppdatert: 02-08-2021 05:50
Klart  
Klart  
   Vind: VSV 1.5 m/s
Vind: VSV 1.5 m/s
Temperatur: 10°C
Wind Chill: 9°C
Duggpunkt: 10°C
Fuktighet: 100%
Barometer: 1000 hPa
Sikt: More than 10 km
Skydetaljer: Klart
ESSA 020350Z 25003KT 230V290 CAVOK 10/10 Q1000 NOSIG
EKCH - København
oppdatert: 02-08-2021 05:50
For det meste skyet  
For det meste skyet  
   Vind: VSV 6.7 m/s
Vind: VSV 6.7 m/s
Temperatur: 14°C
Duggpunkt: 11°C
Fuktighet: 82%
Barometer: 1004 hPa
Skyer: For det meste skyet
Sikt: More than 10 km
Skydetaljer: For det meste skyet 1402.1 m
EKCH 020350Z AUTO 25013KT 9999 BKN046/// 14/11 Q1004 NOSIG
ENHV - Nordkapp
oppdatert: 02-08-2021 05:50
For det meste skyet  
For det meste skyet  
   Vind: VSV 2.6 m/s
Vind: VSV 2.6 m/s
Temperatur: 8°C
Wind Chill: 7°C
Duggpunkt: 5°C
Fuktighet: 82%
Barometer: 997 hPa
Skyer: For det meste skyet
Sikt: More than 10 km
Skydetaljer: få skyer 548.6 m,
For det meste skyet 1219.2 m
ENHV 020350Z 24005KT 9999 FEW018 BKN040 08/05 Q0997
ENSB - Svalbard
oppdatert: 02-08-2021 05:50
Delvis Skyet  
Delvis Skyet  
   Vind: ØSØ 4.6 m/s
Vind: ØSØ 4.6 m/s
Temperatur: 7°C
Wind Chill: 4°C
Duggpunkt: 3°C
Fuktighet: 76%
Barometer: 1004 hPa
Skyer: Delvis Skyet
Sikt: More than 10 km
Skydetaljer: få skyer 609.6 m,
Delvis Skyet 4267.2 m
ENSB 020350Z 12009KT 9999 FEW020 SCT140 07/03 Q1004 RMK WIND 1400FT 14010KT
NZSP - Sørpolen
oppdatert: 02-08-2021 01:50
Ikkje oppdatert
iskrystaller, Blowing, Snø, Overskyet  
iskrystaller, Blowing, Snø, Overskyet  
   Vind: NØ 6.2 m/s
Vind: NØ 6.2 m/s
Temperatur: -59°C
Wind Chill: -81°C
Barometer: 958 hPa
Skyer: Overskyet
Sikt: 1.2 km
Skydetaljer: Overskyet 914.4 m
NZSP 012350Z 04012KT 1200 IC BLSN OVC030 M59/ A2829 RMK SKWY WNDS ESTMD CLN AIR 05006KT ALL WNDS GRID
 

Script utviklet av  Saratoga-weather.org Tilrettelagt for malen av  Weerstation Leuven

Utstyr vi bruker:

Værstsjon
Davis VP2+ 24/H Fars, Online-Ups, 4G Backup.

Værprogram
Weather Display

Ekstra utstyr
Custom builds pcs

Provider
Hosted By Pro Isp

Davis VP2+ 24/H Fars, Online-Ups, 4G Backup.

Weather Display

Custom builds pcs

Hosted By Pro Isp